createdAt,value
2017-09-12T16:32:43.585Z,0.57
2017-09-12T16:35:46.152Z,0.40
2017-09-12T16:38:48.880Z,0.70
2017-09-12T16:41:51.388Z,0.80
2017-09-12T16:44:54.464Z,0.50
2017-09-12T16:47:56.975Z,0.50
2017-09-12T16:50:59.704Z,0.52
2017-09-12T16:54:02.249Z,0.60
2017-09-12T16:57:05.125Z,0.57
2017-09-12T17:00:07.731Z,0.70
2017-09-12T17:03:10.455Z,0.70
2017-09-12T17:06:12.990Z,0.85
2017-09-12T17:09:16.510Z,0.80
2017-09-12T17:12:20.607Z,0.45
2017-09-12T17:15:23.470Z,0.60
2017-09-12T17:18:26.187Z,0.82
2017-09-12T17:21:29.095Z,0.43
2017-09-12T17:24:31.617Z,0.80
2017-09-12T17:27:34.953Z,0.93
2017-09-12T17:30:37.513Z,0.90
2017-09-12T17:33:40.496Z,0.98
2017-09-12T17:36:43.027Z,0.82
2017-09-12T17:39:45.921Z,1.10
2017-09-12T17:42:48.431Z,1.45
2017-09-12T17:45:51.140Z,1.20
2017-09-12T17:48:53.695Z,1.00
2017-09-12T17:51:56.503Z,1.20
2017-09-12T17:54:59.028Z,1.10
2017-09-12T17:58:01.772Z,1.10
2017-09-12T18:01:05.061Z,0.80
2017-09-12T18:04:07.857Z,0.80
2017-09-12T18:07:11.229Z,1.00
2017-09-12T18:10:14.201Z,0.90
2017-09-12T18:13:16.756Z,1.42
2017-09-12T18:16:19.641Z,1.20
2017-09-12T18:19:22.232Z,0.80
2017-09-12T18:22:26.291Z,1.08
2017-09-12T18:25:28.821Z,1.20
2017-09-12T18:28:32.564Z,1.00
2017-09-12T18:31:35.067Z,1.30
2017-09-12T18:34:38.791Z,1.23
2017-09-12T18:37:41.324Z,1.52
2017-09-12T18:40:45.871Z,1.10
2017-09-12T18:43:48.469Z,1.27
2017-09-12T18:46:51.416Z,1.10
2017-09-12T18:49:54.073Z,1.62
2017-09-12T18:52:57.049Z,1.55
2017-09-12T18:55:59.590Z,1.40
2017-09-12T18:59:02.477Z,1.08
2017-09-12T19:02:05.037Z,1.30
2017-09-12T19:05:08.013Z,1.35
2017-09-12T19:07:25.428Z,1.80
2017-09-12T19:07:58.918Z,1.80
2017-09-12T19:08:31.472Z,1.75
2017-09-12T19:09:04.013Z,1.92
2017-09-12T19:09:36.563Z,1.33
2017-09-12T19:10:09.846Z,1.58
2017-09-12T19:10:43.353Z,1.60
2017-09-12T19:11:16.081Z,1.92
2017-09-12T19:11:49.365Z,1.70
2017-09-12T19:14:51.940Z,1.42
2017-09-12T19:17:54.317Z,1.85
2017-09-12T19:20:56.433Z,1.40
2017-09-12T19:23:58.908Z,1.90
2017-09-12T19:27:01.885Z,2.20
2017-09-12T19:30:04.278Z,2.08
2017-09-12T19:33:06.286Z,1.70
2017-09-12T19:36:08.643Z,1.85
2017-09-12T19:39:11.428Z,2.30
2017-09-12T19:42:13.869Z,1.77
2017-09-12T19:45:15.810Z,2.10
2017-09-12T19:48:18.200Z,1.70
2017-09-12T19:51:20.151Z,1.62
2017-09-12T19:54:22.593Z,1.77
2017-09-12T19:57:24.544Z,2.35
2017-09-12T20:00:26.913Z,2.17
2017-09-12T20:03:28.847Z,2.00
2017-09-12T20:06:31.207Z,2.17
2017-09-12T20:09:33.358Z,1.75
2017-09-12T20:12:35.716Z,2.10
2017-09-12T20:15:37.654Z,1.67
2017-09-12T20:18:40.035Z,2.13
2017-09-12T20:21:42.101Z,2.22
2017-09-12T20:24:44.394Z,2.23
2017-09-12T20:27:47.196Z,2.30
2017-09-12T20:30:49.476Z,2.30
2017-09-12T20:33:51.498Z,2.10
2017-09-12T20:36:53.857Z,1.83
2017-09-12T20:39:55.836Z,2.50
2017-09-12T20:42:58.166Z,2.53
2017-09-12T20:46:00.106Z,2.27
2017-09-12T20:49:02.597Z,2.90
2017-09-12T20:52:04.627Z,2.20
2017-09-12T20:55:06.933Z,2.53
2017-09-12T20:58:08.917Z,2.33
2017-09-12T21:01:11.384Z,2.63
2017-09-12T21:04:13.322Z,2.47
2017-09-12T21:07:15.692Z,2.87
2017-09-12T21:10:18.356Z,2.90
2017-09-12T21:13:20.716Z,3.23
2017-09-12T21:16:22.832Z,2.87
2017-09-12T21:19:25.875Z,3.17
2017-09-12T21:22:27.824Z,2.80
2017-09-12T21:25:30.181Z,2.93
2017-09-12T21:28:32.236Z,3.10
2017-09-12T21:31:34.652Z,3.00
2017-09-12T21:34:36.613Z,3.43
2017-09-12T21:37:38.958Z,3.73
2017-09-12T21:40:40.914Z,3.33
2017-09-12T21:43:44.935Z,3.50
2017-09-12T21:46:46.940Z,3.50
2017-09-12T21:49:49.277Z,3.73
2017-09-12T21:52:51.294Z,3.93
2017-09-12T21:55:53.593Z,3.90
2017-09-12T21:58:56.506Z,4.17
2017-09-12T22:01:58.838Z,5.10
2017-09-12T22:05:01.344Z,4.37
2017-09-12T22:08:04.496Z,4.60
2017-09-12T22:11:06.540Z,3.93
2017-09-12T22:14:08.890Z,3.93
2017-09-12T22:17:11.947Z,3.83
2017-09-12T22:20:14.353Z,4.20
2017-09-12T22:23:16.370Z,3.97
2017-09-12T22:26:18.667Z,3.57
2017-09-12T22:29:20.606Z,3.80
2017-09-12T22:32:23.036Z,3.70
2017-09-12T22:35:25.006Z,3.50
2017-09-12T22:38:27.402Z,3.40
2017-09-12T22:41:30.577Z,3.33
2017-09-12T22:44:33.009Z,2.93
2017-09-12T22:47:35.082Z,3.27
2017-09-12T22:50:37.462Z,3.47
2017-09-12T22:53:42.101Z,3.37
2017-09-12T22:56:44.465Z,3.60
2017-09-12T22:59:46.513Z,3.00
2017-09-12T23:02:48.881Z,3.27
2017-09-12T23:05:50.916Z,2.63
2017-09-12T23:08:53.413Z,2.67
2017-09-12T23:11:55.374Z,2.93
2017-09-12T23:14:57.795Z,3.37
2017-09-12T23:17:59.846Z,3.27
2017-09-12T23:21:02.195Z,3.20
2017-09-12T23:24:04.250Z,2.87
2017-09-12T23:27:06.594Z,2.90
2017-09-12T23:30:08.525Z,2.63
2017-09-12T23:33:11.558Z,2.43
2017-09-12T23:36:13.526Z,2.60
2017-09-12T23:39:17.001Z,3.73
2017-09-12T23:42:19.017Z,3.10
2017-09-12T23:45:21.377Z,2.53
2017-09-12T23:48:23.444Z,3.10
2017-09-12T23:51:25.808Z,3.27
2017-09-12T23:54:27.811Z,4.07
2017-09-12T23:57:30.182Z,5.93
